createdAt,value
2019-04-22T00:00:36.794Z,0
2019-04-22T00:01:36.410Z,0
2019-04-22T00:02:43.577Z,0
2019-04-22T00:03:45.507Z,0
2019-04-22T00:04:52.555Z,0
2019-04-22T00:06:00.382Z,0
2019-04-22T00:07:07.059Z,0
2019-04-22T00:08:10.620Z,0
2019-04-22T00:09:11.061Z,0
2019-04-22T00:10:13.380Z,0
2019-04-22T00:11:22.273Z,0
2019-04-22T00:13:23.772Z,0
2019-04-22T00:14:13.144Z,0
2019-04-22T00:15:15.477Z,0
2019-04-22T00:16:26.459Z,0
2019-04-22T00:17:26.224Z,0
2019-04-22T00:18:30.437Z,0
2019-04-22T00:19:32.092Z,0
2019-04-22T00:20:23.841Z,0
2019-04-22T00:21:35.362Z,0
2019-04-22T00:22:28.868Z,0
2019-04-22T00:23:31.388Z,0
2019-04-22T00:24:33.596Z,0
2019-04-22T00:25:36.610Z,0
2019-04-22T00:26:38.051Z,0
2019-04-22T00:28:43.909Z,0
2019-04-22T00:30:40.654Z,0
2019-04-22T00:31:41.670Z,0
2019-04-22T00:32:44.984Z,0
2019-04-22T00:33:39.459Z,0
2019-04-22T00:34:42.579Z,0
2019-04-22T00:35:49.419Z,0
2019-04-22T00:36:48.124Z,0
2019-04-22T00:37:54.782Z,0
2019-04-22T00:38:54.200Z,0
2019-04-22T00:39:52.075Z,0
2019-04-22T00:40:56.359Z,0
2019-04-22T00:41:56.461Z,0
2019-04-22T00:43:03.487Z,0
2019-04-22T00:44:08.790Z,0
2019-04-22T00:45:07.922Z,0
2019-04-22T00:45:57.379Z,0
2019-04-22T00:47:14.661Z,0
2019-04-22T00:48:14.299Z,0
2019-04-22T00:49:53.608Z,0
2019-04-22T00:52:09.624Z,0
2019-04-22T00:53:16.357Z,0
2019-04-22T00:54:13.635Z,0
2019-04-22T00:56:27.800Z,0
2019-04-22T00:57:15.391Z,0
2019-04-22T00:58:22.503Z,0
2019-04-22T00:59:17.253Z,0
2019-04-22T01:00:24.873Z,0
2019-04-22T01:02:28.042Z,0
2019-04-22T01:03:26.094Z,0
2019-04-22T01:04:35.084Z,0
2019-04-22T01:05:27.771Z,0
2019-04-22T01:06:35.802Z,0
2019-04-22T01:07:32.147Z,0
2019-04-22T01:08:40.991Z,0
2019-04-22T01:09:38.915Z,0
2019-04-22T01:10:42.217Z,0
2019-04-22T01:11:33.265Z,0
2019-04-22T01:12:39.902Z,0
2019-04-22T01:13:38.658Z,0
2019-04-22T01:14:41.459Z,0
2019-04-22T01:15:40.232Z,0
2019-04-22T01:16:43.784Z,0
2019-04-22T01:17:45.389Z,0
2019-04-22T01:18:43.693Z,0
2019-04-22T01:19:51.013Z,0
2019-04-22T01:21:08.690Z,0
2019-04-22T01:21:52.469Z,0
2019-04-22T01:22:53.241Z,0
2019-04-22T01:23:56.199Z,0
2019-04-22T01:24:50.324Z,0
2019-04-22T01:25:55.082Z,0
2019-04-22T01:26:52.283Z,0
2019-04-22T01:27:50.269Z,0
2019-04-22T01:28:51.188Z,0
2019-04-22T01:29:51.783Z,0
2019-04-22T01:30:45.957Z,0
2019-04-22T01:31:43.454Z,0
2019-04-22T01:32:45.492Z,0
2019-04-22T01:33:49.658Z,0
2019-04-22T01:34:56.585Z,0
2019-04-22T01:36:02.693Z,0
2019-04-22T01:37:02.605Z,0
2019-04-22T01:38:06.441Z,0
2019-04-22T01:39:18.258Z,0
2019-04-22T01:40:21.405Z,0
2019-04-22T01:41:23.008Z,0
2019-04-22T01:42:16.910Z,0
2019-04-22T01:43:29.936Z,0
2019-04-22T01:44:29.461Z,0
2019-04-22T01:45:26.729Z,0
2019-04-22T01:46:31.786Z,0
2019-04-22T01:47:34.258Z,0
2019-04-22T01:50:32.156Z,0
2019-04-22T01:51:47.228Z,0
2019-04-22T01:52:47.610Z,0
2019-04-22T01:53:33.482Z,0
2019-04-22T01:54:40.281Z,0
2019-04-22T01:55:39.106Z,0
2019-04-22T01:56:41.056Z,0
2019-04-22T01:57:43.285Z,0
2019-04-22T01:58:38.286Z,0
2019-04-22T01:59:38.415Z,0
2019-04-22T02:00:51.051Z,0
2019-04-22T02:01:50.016Z,0
2019-04-22T02:02:49.217Z,0
2019-04-22T02:03:56.145Z,0
2019-04-22T02:04:53.748Z,0
2019-04-22T02:05:53.638Z,0
2019-04-22T02:07:00.153Z,0
2019-04-22T02:08:02.500Z,0
2019-04-22T02:09:04.011Z,0
2019-04-22T02:09:56.166Z,0
2019-04-22T02:11:04.218Z,0
2019-04-22T02:13:04.489Z,0
2019-04-22T02:14:04.642Z,0
2019-04-22T02:15:09.195Z,0
2019-04-22T02:16:05.716Z,0
2019-04-22T02:17:09.207Z,0
2019-04-22T02:18:18.106Z,0
2019-04-22T02:19:20.715Z,0
2019-04-22T02:20:12.324Z,0
2019-04-22T02:21:16.997Z,0
2019-04-22T02:22:17.607Z,0
2019-04-22T02:23:40.250Z,0
2019-04-22T02:24:20.073Z,0
2019-04-22T02:25:24.002Z,0
2019-04-22T02:26:25.593Z,0
2019-04-22T02:27:29.397Z,0
2019-04-22T02:28:33.986Z,0
2019-04-22T02:29:30.004Z,0
2019-04-22T02:30:37.423Z,0
2019-04-22T02:31:38.115Z,0
2019-04-22T02:32:49.567Z,0
2019-04-22T02:34:39.703Z,0
2019-04-22T02:36:01.920Z,0
2019-04-22T02:36:43.102Z,0
2019-04-22T02:37:54.915Z,0
2019-04-22T02:39:00.120Z,0
2019-04-22T02:39:45.201Z,0
2019-04-22T02:41:13.242Z,0
2019-04-22T02:42:09.463Z,0
2019-04-22T02:42:51.865Z,0
2019-04-22T02:44:53.589Z,0
2019-04-22T02:46:13.449Z,0
2019-04-22T02:48:06.727Z,0
2019-04-22T02:49:11.731Z,0
2019-04-22T02:50:02.053Z,0
2019-04-22T02:51:13.026Z,0
2019-04-22T02:51:59.705Z,0
2019-04-22T02:53:00.966Z,0
2019-04-22T02:55:10.657Z,0
2019-04-22T02:56:22.976Z,0
2019-04-22T02:58:19.287Z,0
2019-04-22T03:00:21.636Z,0
2019-04-22T03:01:24.991Z,0
2019-04-22T03:02:21.465Z,0
2019-04-22T03:03:31.366Z,0
2019-04-22T03:04:18.575Z,0
2019-04-22T03:05:27.999Z,0
2019-04-22T03:06:32.907Z,0
2019-04-22T03:07:29.358Z,0
2019-04-22T03:08:30.316Z,0
2019-04-22T03:09:33.736Z,0
2019-04-22T03:10:37.922Z,0
2019-04-22T03:11:33.782Z,0
2019-04-22T03:12:29.170Z,0
2019-04-22T03:14:33.732Z,0
2019-04-22T03:15:46.457Z,0
2019-04-22T03:16:41.226Z,0
2019-04-22T03:17:41.321Z,0
2019-04-22T03:20:56.369Z,4
2019-04-22T03:21:50.273Z,4
2019-04-22T03:22:47.018Z,0
2019-04-22T03:24:08.752Z,4
2019-04-22T03:25:12.441Z,4
2019-04-22T03:27:48.509Z,4
2019-04-22T03:30:03.697Z,4
2019-04-22T03:33:12.481Z,8
2019-04-22T03:34:55.306Z,8
2019-04-22T03:35:34.599Z,12
2019-04-22T03:36:25.938Z,12
2019-04-22T03:39:31.958Z,16
2019-04-22T03:40:22.335Z,20
2019-04-22T03:41:31.425Z,24
2019-04-22T03:42:09.792Z,28
2019-04-22T03:43:42.169Z,36
2019-04-22T03:44:33.877Z,36
2019-04-22T03:45:26.374Z,40
2019-04-22T03:46:36.717Z,48
2019-04-22T03:48:26.107Z,60
2019-04-22T03:49:38.892Z,64
2019-04-22T03:50:29.641Z,72
2019-04-22T03:53:32.941Z,92
2019-04-22T03:54:39.437Z,104
2019-04-22T03:55:38.275Z,112
2019-04-22T03:57:48.832Z,132
2019-04-22T03:58:52.786Z,140
2019-04-22T04:02:04.267Z,176
2019-04-22T04:03:51.033Z,208
2019-04-22T04:04:51.115Z,224
2019-04-22T04:05:54.146Z,236
2019-04-22T04:09:03.736Z,280
2019-04-22T04:10:01.403Z,300
2019-04-22T04:10:53.204Z,316
2019-04-22T04:13:08.237Z,344
2019-04-22T04:14:10.098Z,360
2019-04-22T04:15:13.635Z,376
2019-04-22T04:16:04.929Z,392
2019-04-22T04:17:09.204Z,412
2019-04-22T04:18:11.408Z,428
2019-04-22T04:19:19.654Z,444
2019-04-22T04:20:26.260Z,464
2019-04-22T04:21:28.063Z,480
2019-04-22T04:22:30.691Z,500
2019-04-22T04:23:30.776Z,520
2019-04-22T04:24:32.685Z,540
2019-04-22T04:26:42.754Z,604
2019-04-22T04:28:03.615Z,644
2019-04-22T04:28:39.734Z,700
2019-04-22T04:31:36.462Z,940
2019-04-22T04:32:51.419Z,1032
2019-04-22T04:33:48.376Z,1144
2019-04-22T04:34:54.281Z,1280
2019-04-22T04:35:44.298Z,1444
2019-04-22T04:36:42.488Z,1620
2019-04-22T04:37:46.727Z,1776
2019-04-22T04:38:45.770Z,1896
2019-04-22T04:39:59.836Z,2040
2019-04-22T04:40:41.797Z,2196
2019-04-22T04:43:52.875Z,2512
2019-04-22T04:47:06.227Z,2644
2019-04-22T04:50:05.561Z,2480
2019-04-22T04:51:11.113Z,2328
2019-04-22T04:54:13.189Z,2120
2019-04-22T04:55:24.423Z,2040
2019-04-22T04:56:10.918Z,1992
2019-04-22T04:57:07.359Z,1940
2019-04-22T04:58:27.384Z,1880
2019-04-22T05:01:28.907Z,1804
2019-04-22T05:02:20.272Z,1824
2019-04-22T05:03:20.620Z,1844
2019-04-22T05:04:25.453Z,1844
2019-04-22T05:05:22.297Z,1872
2019-04-22T05:06:21.707Z,1908
2019-04-22T05:07:27.793Z,1964
2019-04-22T05:08:40.699Z,2016
2019-04-22T05:10:53.484Z,2152
2019-04-22T05:11:40.611Z,2172
2019-04-22T05:13:39.646Z,2276
2019-04-22T05:18:37.361Z,2988
2019-04-22T05:19:33.250Z,3060
2019-04-22T05:20:55.243Z,2996
2019-04-22T05:21:40.566Z,2844
2019-04-22T05:22:39.778Z,3504
2019-04-22T05:23:50.550Z,3844
2019-04-22T05:24:43.696Z,3592
2019-04-22T05:25:40.347Z,3520
2019-04-22T05:26:52.799Z,3672
2019-04-22T05:27:45.327Z,3876
2019-04-22T05:28:52.074Z,4188
2019-04-22T05:30:45.718Z,6048
2019-04-22T05:31:57.260Z,6780
2019-04-22T05:32:57.070Z,6596
2019-04-22T05:33:56.783Z,5868
2019-04-22T05:34:55.836Z,5236
2019-04-22T05:36:02.975Z,5288
2019-04-22T05:37:03.979Z,5708
2019-04-22T05:38:02.720Z,5460
2019-04-22T05:40:13.999Z,6380
2019-04-22T05:41:02.318Z,6140
2019-04-22T05:42:08.450Z,9492
2019-04-22T05:43:09.674Z,14304
2019-04-22T05:44:08.396Z,15264
2019-04-22T05:46:09.480Z,9008
2019-04-22T05:47:14.910Z,5116
2019-04-22T05:48:14.163Z,4260
2019-04-22T05:49:18.286Z,4988
2019-04-22T05:50:21.884Z,6300
2019-04-22T05:51:21.165Z,5472
2019-04-22T05:52:21.202Z,4844
2019-04-22T05:53:22.076Z,6704
2019-04-22T05:55:30.392Z,6556
2019-04-22T05:56:34.239Z,8600
2019-04-22T05:57:31.538Z,10680
2019-04-22T05:58:32.924Z,10032
2019-04-22T05:59:36.211Z,9892
2019-04-22T06:00:59.954Z,8324
2019-04-22T06:02:48.904Z,5528
2019-04-22T06:03:40.730Z,4452
2019-04-22T06:04:37.224Z,3764
2019-04-22T06:05:45.317Z,4948
2019-04-22T06:06:36.971Z,7448
2019-04-22T06:07:41.730Z,6184
2019-04-22T06:08:48.802Z,3944
2019-04-22T06:09:39.822Z,3508
2019-04-22T06:11:08.191Z,3532
2019-04-22T06:11:38.019Z,3804
2019-04-22T06:12:46.585Z,3652
2019-04-22T06:13:50.069Z,3608
2019-04-22T06:14:53.731Z,3572
2019-04-22T06:15:53.055Z,3644
2019-04-22T06:16:59.148Z,3772
2019-04-22T06:18:06.543Z,3856
2019-04-22T06:19:00.894Z,3968
2019-04-22T06:19:57.658Z,4028
2019-04-22T06:21:07.108Z,4112
2019-04-22T06:22:04.251Z,4024
2019-04-22T06:23:03.878Z,4264
2019-04-22T06:24:14.027Z,4344
2019-04-22T06:25:17.012Z,4396
2019-04-22T06:26:26.605Z,4444
2019-04-22T06:27:14.804Z,4560
2019-04-22T06:28:23.600Z,4632
2019-04-22T06:29:18.000Z,4592
2019-04-22T06:30:17.242Z,4680
2019-04-22T06:31:20.273Z,4712
2019-04-22T06:33:20.648Z,4744
2019-04-22T06:34:22.108Z,4852
2019-04-22T06:35:34.474Z,4748
2019-04-22T06:36:24.507Z,4712
2019-04-22T06:37:26.130Z,4728
2019-04-22T06:38:40.398Z,4792
2019-04-22T06:40:31.676Z,4756
2019-04-22T06:41:35.112Z,4764
2019-04-22T06:42:34.801Z,4756
2019-04-22T06:43:36.844Z,4728
2019-04-22T06:44:41.171Z,4800
2019-04-22T06:45:35.640Z,4856
2019-04-22T06:46:39.694Z,4920
2019-04-22T06:47:51.180Z,4836
2019-04-22T06:48:46.006Z,4840
2019-04-22T06:49:41.666Z,4808
2019-04-22T06:51:46.473Z,5088
2019-04-22T06:52:51.878Z,4912
2019-04-22T06:53:48.045Z,5084
2019-04-22T06:54:54.294Z,5192
2019-04-22T06:55:55.019Z,5004
2019-04-22T06:56:58.014Z,4904
2019-04-22T06:58:00.331Z,4860
2019-04-22T06:58:52.353Z,5100
2019-04-22T06:59:58.828Z,4984
2019-04-22T07:01:04.306Z,5000
2019-04-22T07:02:02.612Z,4984
2019-04-22T07:04:16.254Z,4944
2019-04-22T07:05:07.789Z,4992
2019-04-22T07:06:11.464Z,4708
2019-04-22T07:07:08.062Z,4984
2019-04-22T07:08:34.382Z,5128
2019-04-22T07:10:26.827Z,5048
2019-04-22T07:11:06.271Z,5048
2019-04-22T07:12:20.722Z,5032
2019-04-22T07:13:17.377Z,5064
2019-04-22T07:14:28.873Z,4888
2019-04-22T07:15:35.500Z,5272
2019-04-22T07:16:26.538Z,4804
2019-04-22T07:17:23.210Z,5160
2019-04-22T07:19:31.989Z,5340
2019-04-22T07:20:30.537Z,5288
2019-04-22T07:21:30.436Z,5196
2019-04-22T07:22:33.847Z,5144
2019-04-22T07:23:41.710Z,5144
2019-04-22T07:24:40.647Z,5380
2019-04-22T07:25:36.413Z,5300
2019-04-22T07:26:37.545Z,5184
2019-04-22T07:27:34.483Z,5132
2019-04-22T07:28:39.363Z,5216
2019-04-22T07:29:46.677Z,5204
2019-04-22T07:30:40.756Z,5228
2019-04-22T07:31:42.791Z,5236
2019-04-22T07:33:04.848Z,5408
2019-04-22T07:33:56.853Z,5148
2019-04-22T07:37:48.592Z,5252
2019-04-22T07:38:50.852Z,5336
2019-04-22T07:39:50.078Z,5360
2019-04-22T07:40:56.268Z,5272
2019-04-22T07:41:59.502Z,5292
2019-04-22T07:43:04.265Z,5156
2019-04-22T07:44:22.075Z,5300
2019-04-22T07:45:08.457Z,5312
2019-04-22T07:46:11.886Z,5292
2019-04-22T07:47:15.223Z,5276
2019-04-22T07:48:22.587Z,5184
2019-04-22T07:49:10.604Z,5384
2019-04-22T07:50:17.049Z,5044
2019-04-22T07:51:15.553Z,5620
2019-04-22T07:52:18.762Z,5300
2019-04-22T07:53:10.055Z,5548
2019-04-22T07:54:18.162Z,5312
2019-04-22T07:55:13.471Z,5292
2019-04-22T07:56:21.487Z,5264
2019-04-22T07:57:27.911Z,4932
2019-04-22T07:58:24.094Z,5268
2019-04-22T07:59:30.721Z,5488
2019-04-22T08:00:29.505Z,5328
2019-04-22T08:01:26.682Z,5604
2019-04-22T08:02:32.707Z,5388
2019-04-22T08:03:40.348Z,5588
2019-04-22T08:04:49.406Z,5472
2019-04-22T08:06:43.577Z,5420
2019-04-22T08:07:38.375Z,5504
2019-04-22T08:08:37.096Z,5512
2019-04-22T08:09:44.565Z,5504
2019-04-22T08:10:43.161Z,4988
2019-04-22T08:12:47.273Z,5556
2019-04-22T08:14:00.296Z,5600
2019-04-22T08:14:45.639Z,5240
2019-04-22T08:15:54.169Z,5540
2019-04-22T08:16:51.614Z,5636
2019-04-22T08:19:00.730Z,5360
2019-04-22T08:19:55.814Z,5708
2019-04-22T08:20:58.867Z,5636
2019-04-22T08:21:56.970Z,5772
2019-04-22T08:23:04.690Z,5484
2019-04-22T08:24:02.712Z,5344
2019-04-22T08:25:00.333Z,5380
2019-04-22T08:26:00.863Z,5608
2019-04-22T08:27:04.867Z,5284
2019-04-22T08:28:10.440Z,5364
2019-04-22T08:29:14.827Z,5388
2019-04-22T08:30:14.427Z,5200
2019-04-22T08:31:14.516Z,5392
2019-04-22T08:32:20.374Z,5360
2019-04-22T08:33:15.986Z,5256
2019-04-22T08:35:20.281Z,5324
2019-04-22T08:36:20.723Z,5396
2019-04-22T08:37:41.462Z,5012
2019-04-22T08:38:24.210Z,5524
2019-04-22T08:39:25.602Z,3940
2019-04-22T08:40:43.110Z,4284
2019-04-22T08:42:34.766Z,5760
2019-04-22T08:43:37.879Z,4880
2019-04-22T08:45:07.989Z,5808
2019-04-22T08:45:44.429Z,5924
2019-04-22T08:46:40.373Z,5728
2019-04-22T08:47:41.879Z,5852
2019-04-22T08:48:52.830Z,5820
2019-04-22T08:49:56.858Z,5928
2019-04-22T08:50:58.436Z,5888
2019-04-22T08:51:49.462Z,5888
2019-04-22T08:52:57.693Z,5828
2019-04-22T08:54:57.353Z,5628
2019-04-22T08:56:07.323Z,5716
2019-04-22T08:56:58.225Z,5884
2019-04-22T08:58:15.344Z,5856
2019-04-22T08:59:12.265Z,5680
2019-04-22T09:00:02.899Z,5832
2019-04-22T09:01:04.541Z,6384
2019-04-22T09:02:09.856Z,6804
2019-04-22T09:03:04.374Z,6316
2019-04-22T09:04:10.389Z,6532
2019-04-22T09:05:20.400Z,5904
2019-04-22T09:06:22.365Z,5652
2019-04-22T09:07:21.166Z,5568
2019-04-22T09:09:11.443Z,5376
2019-04-22T09:10:18.099Z,5716
2019-04-22T09:11:20.216Z,6236
2019-04-22T09:12:26.511Z,6204
2019-04-22T09:13:20.653Z,6440
2019-04-22T09:14:24.401Z,6112
2019-04-22T09:15:26.407Z,6412
2019-04-22T09:16:33.334Z,6348
2019-04-22T09:17:31.465Z,6324
2019-04-22T09:18:32.924Z,6452
2019-04-22T09:19:30.150Z,6556
2019-04-22T09:20:35.372Z,6288
2019-04-22T09:21:36.133Z,6308
2019-04-22T09:22:36.275Z,6260
2019-04-22T09:23:42.221Z,5152
2019-04-22T09:24:36.155Z,6144
2019-04-22T09:25:41.883Z,5944
2019-04-22T09:26:45.040Z,5360
2019-04-22T09:27:45.892Z,6120
2019-04-22T09:28:47.146Z,5968
2019-04-22T09:29:43.084Z,6164
2019-04-22T09:30:50.239Z,6132
2019-04-22T09:31:57.001Z,6092
2019-04-22T09:32:54.237Z,6132
2019-04-22T09:33:47.669Z,6192
2019-04-22T09:34:51.723Z,6216
2019-04-22T09:36:01.247Z,5956
2019-04-22T09:37:07.825Z,6352
2019-04-22T09:38:12.279Z,5920
2019-04-22T09:39:00.629Z,6260
2019-04-22T09:40:08.831Z,6076
2019-04-22T09:42:50.499Z,6180
2019-04-22T09:43:53.635Z,6332
2019-04-22T09:44:51.904Z,7604
2019-04-22T09:45:54.448Z,6024
2019-04-22T09:46:51.959Z,5768
2019-04-22T09:48:59.249Z,6372
2019-04-22T09:51:03.801Z,6108
2019-04-22T09:52:08.046Z,6308
2019-04-22T09:53:03.536Z,6688
2019-04-22T09:54:08.122Z,6008
2019-04-22T09:55:12.499Z,6568
2019-04-22T09:56:09.744Z,5964
2019-04-22T09:57:09.308Z,7732
2019-04-22T09:58:13.492Z,6236
2019-04-22T09:59:15.145Z,5080
2019-04-22T10:00:13.995Z,5584
2019-04-22T10:01:26.182Z,69664
2019-04-22T10:02:26.747Z,9792
2019-04-22T10:03:19.890Z,76768
2019-04-22T10:04:20.142Z,53152
2019-04-22T10:05:21.179Z,6364
2019-04-22T10:06:29.437Z,51552
2019-04-22T10:07:27.202Z,0
2019-04-22T10:08:38.376Z,47360
2019-04-22T10:09:40.601Z,75072
2019-04-22T10:10:27.667Z,78080
2019-04-22T10:11:35.146Z,73120
2019-04-22T10:13:34.780Z,65792
2019-04-22T10:17:39.563Z,68160
2019-04-22T10:18:42.034Z,65440
2019-04-22T10:19:43.913Z,74016
2019-04-22T10:20:51.869Z,88800
2019-04-22T10:22:46.512Z,76544
2019-04-22T10:23:45.777Z,60512
2019-04-22T10:24:44.693Z,57536
2019-04-22T10:25:54.447Z,62048
2019-04-22T10:26:54.955Z,65120
2019-04-22T10:27:59.496Z,64640
2019-04-22T10:29:01.483Z,61632
2019-04-22T10:30:53.215Z,50944
2019-04-22T10:32:05.173Z,24704
2019-04-22T10:32:58.922Z,5476
2019-04-22T10:33:53.734Z,4408
2019-04-22T10:34:44.480Z,4732
2019-04-22T10:35:41.270Z,5064
2019-04-22T10:36:43.403Z,4996
2019-04-22T10:37:42.972Z,4940
2019-04-22T10:38:44.548Z,4932
2019-04-22T10:39:53.319Z,4904
2019-04-22T10:40:47.137Z,4764
2019-04-22T10:41:48.704Z,4544
2019-04-22T10:42:51.133Z,4996
2019-04-22T10:43:51.310Z,20736
2019-04-22T10:44:53.769Z,49376
2019-04-22T10:45:54.504Z,62016
2019-04-22T10:46:56.091Z,63200
2019-04-22T10:47:58.259Z,63264
2019-04-22T10:48:58.235Z,62752
2019-04-22T10:50:00.550Z,59968
2019-04-22T10:51:01.077Z,55264
2019-04-22T10:52:02.697Z,52160
2019-04-22T10:53:03.749Z,53632
2019-04-22T10:54:05.329Z,57344
2019-04-22T10:55:07.548Z,60960
2019-04-22T10:56:09.215Z,63136
2019-04-22T10:57:10.750Z,65056
2019-04-22T10:58:10.753Z,64384
2019-04-22T10:59:12.054Z,61536
2019-04-22T11:00:13.630Z,57728
2019-04-22T11:01:15.738Z,58336
2019-04-22T11:02:17.008Z,61920
2019-04-22T11:03:18.219Z,64288
2019-04-22T11:04:19.455Z,61856
2019-04-22T11:05:20.355Z,64064
2019-04-22T11:06:23.148Z,69472
2019-04-22T11:07:32.508Z,72000
2019-04-22T11:08:32.625Z,69760
2019-04-22T11:09:26.994Z,67488
2019-04-22T11:10:35.370Z,63680
2019-04-22T11:11:41.242Z,59776
2019-04-22T11:12:32.278Z,57152
2019-04-22T11:13:31.746Z,56576
2019-04-22T11:14:32.991Z,61920
2019-04-22T11:15:34.846Z,69568
2019-04-22T11:16:37.199Z,72480
2019-04-22T11:17:37.689Z,67488
2019-04-22T11:18:38.558Z,60640
2019-04-22T11:19:41.419Z,60224
2019-04-22T11:20:41.888Z,62784
2019-04-22T11:21:44.564Z,59072
2019-04-22T11:22:44.658Z,46112
2019-04-22T11:23:46.833Z,34944
2019-04-22T11:24:46.880Z,40928
2019-04-22T11:25:48.300Z,54208
2019-04-22T11:26:49.720Z,61792
2019-04-22T11:27:51.337Z,59488
2019-04-22T11:28:53.901Z,57984
2019-04-22T11:29:55.301Z,62208
2019-04-22T11:30:56.369Z,60576
2019-04-22T11:31:56.702Z,31744
2019-04-22T11:32:58.485Z,11136
2019-04-22T11:34:00.644Z,8324
2019-04-22T11:35:01.698Z,6960
2019-04-22T11:36:02.230Z,6096
2019-04-22T11:37:05.138Z,5652
2019-04-22T11:38:06.525Z,5120
2019-04-22T11:39:09.252Z,5088
2019-04-22T11:40:18.857Z,4940
2019-04-22T11:41:09.266Z,4604
2019-04-22T11:42:12.048Z,4692
2019-04-22T11:43:12.383Z,4640
2019-04-22T11:44:13.300Z,4532
2019-04-22T11:45:15.282Z,4460
2019-04-22T11:46:17.534Z,4392
2019-04-22T11:47:17.472Z,4280
2019-04-22T11:48:19.519Z,4228
2019-04-22T11:49:21.672Z,4216
2019-04-22T11:50:21.828Z,4296
2019-04-22T11:51:24.165Z,3904
2019-04-22T11:52:24.677Z,4032
2019-04-22T11:53:26.914Z,3964
2019-04-22T11:54:28.469Z,4096
2019-04-22T11:55:28.824Z,4096
2019-04-22T11:56:30.994Z,4104
2019-04-22T11:57:31.262Z,4100
2019-04-22T11:58:33.158Z,4072
2019-04-22T11:59:34.055Z,3984
2019-04-22T12:00:36.785Z,4092
2019-04-22T12:01:37.176Z,4036
2019-04-22T12:02:38.815Z,3892
2019-04-22T12:03:40.003Z,3996
2019-04-22T12:04:40.943Z,4060
2019-04-22T12:05:43.757Z,4068
2019-04-22T12:06:44.158Z,4220
2019-04-22T12:07:45.101Z,4332
2019-04-22T12:08:47.790Z,4136
2019-04-22T12:09:47.899Z,4300
2019-04-22T12:10:53.244Z,4396
2019-04-22T12:11:51.628Z,4324
2019-04-22T12:12:53.535Z,4320
2019-04-22T12:13:54.033Z,4348
2019-04-22T12:14:54.748Z,4256
2019-04-22T12:15:56.148Z,4252
2019-04-22T12:16:57.552Z,4276
2019-04-22T12:17:59.289Z,4288
2019-04-22T12:19:00.855Z,4316
2019-04-22T12:20:05.072Z,4096
2019-04-22T12:21:03.587Z,4352
2019-04-22T12:22:04.884Z,4232
2019-04-22T12:23:07.263Z,4180
2019-04-22T12:24:07.169Z,4172
2019-04-22T12:25:08.569Z,4088
2019-04-22T12:26:13.176Z,3932
2019-04-22T12:27:11.349Z,3900
2019-04-22T12:28:12.976Z,3720
2019-04-22T12:29:15.157Z,3628
2019-04-22T12:30:16.731Z,3392
2019-04-22T12:31:17.631Z,3448
2019-04-22T12:32:18.209Z,3392
2019-04-22T12:33:20.930Z,3288
2019-04-22T12:34:21.551Z,3208
2019-04-22T12:35:22.353Z,3196
2019-04-22T12:36:24.529Z,3260
2019-04-22T12:37:34.201Z,3060
2019-04-22T12:38:27.446Z,3032
2019-04-22T12:39:27.851Z,2984
2019-04-22T12:40:39.471Z,2904
2019-04-22T12:41:31.107Z,2912
2019-04-22T12:42:33.262Z,2808
2019-04-22T12:43:33.649Z,2832
2019-04-22T12:44:37.396Z,2888
2019-04-22T12:45:36.340Z,2816
2019-04-22T12:46:38.342Z,2820
2019-04-22T12:47:40.220Z,2748
2019-04-22T12:48:41.128Z,2812
2019-04-22T12:49:42.498Z,2760
2019-04-22T12:50:45.643Z,2612
2019-04-22T12:51:45.368Z,2704
2019-04-22T12:52:52.702Z,2672
2019-04-22T12:53:47.014Z,2608
2019-04-22T12:54:49.057Z,2720
2019-04-22T12:55:50.303Z,2688
2019-04-22T12:56:51.416Z,2592
2019-04-22T12:57:53.935Z,2428
2019-04-22T12:58:54.026Z,2580
2019-04-22T12:59:55.404Z,2488
2019-04-22T13:00:57.031Z,2512
2019-04-22T13:01:58.569Z,2452
2019-04-22T13:02:59.335Z,2504
2019-04-22T13:04:05.818Z,2308
2019-04-22T13:05:02.107Z,2468
2019-04-22T13:06:03.777Z,2464
2019-04-22T13:07:05.939Z,2480
2019-04-22T13:08:07.598Z,2484
2019-04-22T13:09:08.514Z,2400
2019-04-22T13:10:10.123Z,2220
2019-04-22T13:11:12.977Z,2332
2019-04-22T13:12:13.090Z,2360
2019-04-22T13:13:13.206Z,2384
2019-04-22T13:14:14.952Z,2312
2019-04-22T13:15:16.024Z,2340
2019-04-22T13:16:17.486Z,2412
2019-04-22T13:17:18.965Z,2212
2019-04-22T13:18:28.759Z,2248
2019-04-22T13:19:22.968Z,2076
2019-04-22T13:20:24.177Z,2232
2019-04-22T13:21:24.645Z,2256
2019-04-22T13:22:25.339Z,2292
2019-04-22T13:23:27.535Z,2220
2019-04-22T13:24:28.131Z,2228
2019-04-22T13:25:31.891Z,2208
2019-04-22T13:26:31.835Z,2136
2019-04-22T13:27:33.147Z,2196
2019-04-22T13:28:34.664Z,2204
2019-04-22T13:29:35.056Z,2060
2019-04-22T13:30:36.869Z,2136
2019-04-22T13:31:37.665Z,2228
2019-04-22T13:32:39.066Z,2160
2019-04-22T13:33:41.062Z,2164
2019-04-22T13:34:46.587Z,2136
2019-04-22T13:35:43.779Z,2076
2019-04-22T13:36:46.596Z,2056
2019-04-22T13:37:46.777Z,2084
2019-04-22T13:38:47.294Z,1988
2019-04-22T13:39:49.272Z,2008
2019-04-22T13:41:02.518Z,1828
2019-04-22T13:41:56.338Z,1976
2019-04-22T13:42:53.538Z,1980
2019-04-22T13:43:55.780Z,1772
2019-04-22T13:44:55.905Z,1892
2019-04-22T13:45:58.026Z,1984
2019-04-22T13:47:16.522Z,1844
2019-04-22T13:48:16.671Z,1856
2019-04-22T13:49:37.806Z,1760
2019-04-22T13:50:32.905Z,1824
2019-04-22T13:51:36.420Z,1808
2019-04-22T13:52:49.126Z,1756
2019-04-22T13:55:41.873Z,1700
2019-04-22T13:56:30.324Z,1740
2019-04-22T13:57:34.423Z,1716
2019-04-22T13:58:30.262Z,1796
2019-04-22T13:59:23.085Z,1556
2019-04-22T14:00:18.435Z,1660
2019-04-22T14:01:18.744Z,1700
2019-04-22T14:02:19.883Z,1616
2019-04-22T14:03:22.509Z,1636
2019-04-22T14:04:22.714Z,1548
2019-04-22T14:05:24.563Z,1584
2019-04-22T14:06:26.811Z,1520
2019-04-22T14:07:26.774Z,1536
2019-04-22T14:08:29.197Z,1580
2019-04-22T14:09:30.459Z,1524
2019-04-22T14:10:32.106Z,1480
2019-04-22T14:11:41.602Z,1476
2019-04-22T14:12:34.849Z,1412
2019-04-22T14:13:34.986Z,1524
2019-04-22T14:14:38.807Z,1376
2019-04-22T14:15:38.048Z,1360
2019-04-22T14:16:40.626Z,1416
2019-04-22T14:17:40.992Z,1340
2019-04-22T14:18:44.246Z,1328
2019-04-22T14:19:44.643Z,1348
2019-04-22T14:20:44.950Z,1280
2019-04-22T14:21:47.377Z,1280
2019-04-22T14:22:48.419Z,1236
2019-04-22T14:23:48.749Z,1260
2019-04-22T14:24:50.015Z,1208
2019-04-22T14:25:52.593Z,1196
2019-04-22T14:27:07.186Z,1196
2019-04-22T14:28:00.205Z,1188
2019-04-22T14:28:55.702Z,1164
2019-04-22T14:29:57.697Z,1164
2019-04-22T14:30:58.257Z,1152
2019-04-22T14:32:06.917Z,1136
2019-04-22T14:33:02.594Z,1108
2019-04-22T14:34:05.375Z,1128
2019-04-22T14:35:04.953Z,1084
2019-04-22T14:36:05.125Z,1084
2019-04-22T14:37:06.522Z,1120
2019-04-22T14:38:08.415Z,1112
2019-04-22T14:39:10.085Z,1076
2019-04-22T14:40:12.334Z,1060
2019-04-22T14:41:30.635Z,1092
2019-04-22T14:42:35.224Z,1056
2019-04-22T14:43:46.260Z,1044
2019-04-22T14:45:52.251Z,1040
2019-04-22T14:46:52.055Z,1040
2019-04-22T14:47:49.399Z,1048
2019-04-22T14:48:46.039Z,1056
2019-04-22T14:49:47.525Z,1032
2019-04-22T14:50:46.666Z,1012
2019-04-22T14:51:51.870Z,1016
2019-04-22T14:52:52.268Z,1016
2019-04-22T14:53:44.815Z,1004
2019-04-22T14:54:41.328Z,1000
2019-04-22T14:55:36.008Z,1016
2019-04-22T14:56:34.164Z,1004
2019-04-22T14:57:36.274Z,1044
2019-04-22T14:58:37.240Z,1016
2019-04-22T14:59:37.834Z,988
2019-04-22T15:00:39.876Z,976
2019-04-22T15:01:41.507Z,972
2019-04-22T15:02:41.861Z,964
2019-04-22T15:03:45.995Z,992
2019-04-22T15:04:45.898Z,976
2019-04-22T15:05:46.261Z,964
2019-04-22T15:06:48.923Z,948
2019-04-22T15:07:49.886Z,952
2019-04-22T15:08:50.837Z,940
2019-04-22T15:09:52.235Z,928
2019-04-22T15:10:53.817Z,944
2019-04-22T15:12:08.370Z,920
2019-04-22T15:12:57.388Z,916
2019-04-22T15:13:57.076Z,912
2019-04-22T15:14:59.653Z,920
2019-04-22T15:16:02.680Z,920
2019-04-22T15:17:01.007Z,900
2019-04-22T15:18:03.049Z,912
2019-04-22T15:19:04.115Z,896
2019-04-22T15:20:05.907Z,888
2019-04-22T15:21:06.902Z,888
2019-04-22T15:22:08.455Z,892
2019-04-22T15:23:10.673Z,872
2019-04-22T15:24:10.832Z,892
2019-04-22T15:25:12.583Z,880
2019-04-22T15:26:14.636Z,880
2019-04-22T15:27:14.657Z,872
2019-04-22T15:28:17.416Z,864